sensor_id;sensor_type;location;lat;lon;timestamp;P1;durP1;ratioP1;P2;durP2;ratioP2
37535;SDS011;23379;51.554;6.736;2023-12-20T00:01:26;24.27;;;12.60;;
37535;SDS011;23379;51.554;6.736;2023-12-20T00:03:51;24.55;;;12.90;;
37535;SDS011;23379;51.554;6.736;2023-12-20T00:06:16;23.75;;;12.40;;
37535;SDS011;23379;51.554;6.736;2023-12-20T00:08:42;21.60;;;12.50;;
37535;SDS011;23379;51.554;6.736;2023-12-20T00:11:07;24.77;;;11.75;;
37535;SDS011;23379;51.554;6.736;2023-12-20T00:13:33;22.13;;;11.40;;
37535;SDS011;23379;51.554;6.736;2023-12-20T00:15:58;26.17;;;11.50;;
37535;SDS011;23379;51.554;6.736;2023-12-20T00:18:23;27.50;;;11.88;;
37535;SDS011;23379;51.554;6.736;2023-12-20T00:20:49;25.98;;;11.63;;
37535;SDS011;23379;51.554;6.736;2023-12-20T00:23:14;26.63;;;12.55;;
37535;SDS011;23379;51.554;6.736;2023-12-20T00:25:39;22.80;;;10.43;;
37535;SDS011;23379;51.554;6.736;2023-12-20T00:28:05;25.75;;;11.75;;
37535;SDS011;23379;51.554;6.736;2023-12-20T00:30:31;23.08;;;10.95;;
37535;SDS011;23379;51.554;6.736;2023-12-20T00:32:56;25.20;;;11.48;;
37535;SDS011;23379;51.554;6.736;2023-12-20T00:35:22;25.60;;;10.38;;
37535;SDS011;23379;51.554;6.736;2023-12-20T00:37:47;21.25;;;10.63;;
37535;SDS011;23379;51.554;6.736;2023-12-20T00:40:12;20.58;;;9.85;;
37535;SDS011;23379;51.554;6.736;2023-12-20T00:42:38;19.52;;;9.70;;
37535;SDS011;23379;51.554;6.736;2023-12-20T00:45:04;27.35;;;10.18;;
37535;SDS011;23379;51.554;6.736;2023-12-20T00:47:30;19.80;;;9.30;;
37535;SDS011;23379;51.554;6.736;2023-12-20T00:49:56;29.05;;;9.43;;
37535;SDS011;23379;51.554;6.736;2023-12-20T00:52:22;24.83;;;10.85;;
37535;SDS011;23379;51.554;6.736;2023-12-20T00:54:48;28.98;;;10.48;;
37535;SDS011;23379;51.554;6.736;2023-12-20T00:57:13;20.45;;;9.95;;
37535;SDS011;23379;51.554;6.736;2023-12-20T00:59:39;25.67;;;11.30;;
37535;SDS011;23379;51.554;6.736;2023-12-20T01:02:04;27.83;;;10.80;;
37535;SDS011;23379;51.554;6.736;2023-12-20T01:04:29;24.20;;;9.60;;
37535;SDS011;23379;51.554;6.736;2023-12-20T01:06:55;22.92;;;9.32;;
37535;SDS011;23379;51.554;6.736;2023-12-20T01:09:20;19.50;;;9.45;;
37535;SDS011;23379;51.554;6.736;2023-12-20T01:11:48;15.40;;;7.38;;
37535;SDS011;23379;51.554;6.736;2023-12-20T01:14:14;22.40;;;7.60;;
37535;SDS011;23379;51.554;6.736;2023-12-20T01:16:39;15.57;;;7.45;;
37535;SDS011;23379;51.554;6.736;2023-12-20T01:19:05;23.15;;;7.63;;
37535;SDS011;23379;51.554;6.736;2023-12-20T01:21:30;19.23;;;8.65;;
37535;SDS011;23379;51.554;6.736;2023-12-20T01:23:56;24.80;;;7.95;;
37535;SDS011;23379;51.554;6.736;2023-12-20T01:26:21;15.95;;;7.47;;
37535;SDS011;23379;51.554;6.736;2023-12-20T01:28:46;17.02;;;8.20;;
37535;SDS011;23379;51.554;6.736;2023-12-20T01:31:12;17.27;;;7.65;;
37535;SDS011;23379;51.554;6.736;2023-12-20T01:33:37;18.58;;;7.68;;
37535;SDS011;23379;51.554;6.736;2023-12-20T01:36:03;20.90;;;8.70;;
37535;SDS011;23379;51.554;6.736;2023-12-20T01:38:29;18.60;;;8.13;;
37535;SDS011;23379;51.554;6.736;2023-12-20T01:40:54;18.13;;;7.18;;
37535;SDS011;23379;51.554;6.736;2023-12-20T01:43:20;18.77;;;8.27;;
37535;SDS011;23379;51.554;6.736;2023-12-20T01:45:45;19.77;;;7.43;;
37535;SDS011;23379;51.554;6.736;2023-12-20T01:48:12;18.42;;;7.65;;
37535;SDS011;23379;51.554;6.736;2023-12-20T01:50:48;17.25;;;7.72;;
37535;SDS011;23379;51.554;6.736;2023-12-20T01:53:13;21.60;;;6.78;;
37535;SDS011;23379;51.554;6.736;2023-12-20T01:55:40;14.35;;;6.90;;
37535;SDS011;23379;51.554;6.736;2023-12-20T01:58:06;17.80;;;6.82;;
37535;SDS011;23379;51.554;6.736;2023-12-20T02:00:33;18.20;;;6.90;;
37535;SDS011;23379;51.554;6.736;2023-12-20T02:03:03;20.38;;;7.13;;
37535;SDS011;23379;51.554;6.736;2023-12-20T02:05:34;17.08;;;6.93;;
37535;SDS011;23379;51.554;6.736;2023-12-20T02:08:00;20.60;;;7.00;;
37535;SDS011;23379;51.554;6.736;2023-12-20T02:10:25;15.52;;;7.10;;
37535;SDS011;23379;51.554;6.736;2023-12-20T02:12:52;20.73;;;7.05;;
37535;SDS011;23379;51.554;6.736;2023-12-20T02:15:17;14.65;;;6.90;;
37535;SDS011;23379;51.554;6.736;2023-12-20T02:17:43;14.90;;;6.88;;
37535;SDS011;23379;51.554;6.736;2023-12-20T02:20:09;25.38;;;8.18;;
37535;SDS011;23379;51.554;6.736;2023-12-20T02:22:35;19.13;;;7.65;;
37535;SDS011;23379;51.554;6.736;2023-12-20T02:25:00;16.95;;;8.07;;
37535;SDS011;23379;51.554;6.736;2023-12-20T02:27:25;22.90;;;8.57;;
37535;SDS011;23379;51.554;6.736;2023-12-20T02:29:51;22.10;;;8.40;;
37535;SDS011;23379;51.554;6.736;2023-12-20T02:32:17;18.95;;;8.98;;
37535;SDS011;23379;51.554;6.736;2023-12-20T02:34:43;21.58;;;8.95;;
37535;SDS011;23379;51.554;6.736;2023-12-20T02:37:08;22.27;;;9.70;;
37535;SDS011;23379;51.554;6.736;2023-12-20T02:39:33;24.75;;;10.30;;
37535;SDS011;23379;51.554;6.736;2023-12-20T02:41:59;24.33;;;9.05;;
37535;SDS011;23379;51.554;6.736;2023-12-20T02:44:24;18.40;;;8.55;;
37535;SDS011;23379;51.554;6.736;2023-12-20T02:46:50;23.38;;;8.20;;
37535;SDS011;23379;51.554;6.736;2023-12-20T02:49:15;24.38;;;9.05;;
37535;SDS011;23379;51.554;6.736;2023-12-20T02:51:40;21.38;;;8.32;;
37535;SDS011;23379;51.554;6.736;2023-12-20T02:54:06;19.73;;;8.20;;
37535;SDS011;23379;51.554;6.736;2023-12-20T02:56:32;23.40;;;7.55;;
37535;SDS011;23379;51.554;6.736;2023-12-20T02:58:58;22.23;;;7.40;;
37535;SDS011;23379;51.554;6.736;2023-12-20T03:01:23;12.07;;;6.78;;
37535;SDS011;23379;51.554;6.736;2023-12-20T03:03:49;16.38;;;7.18;;
37535;SDS011;23379;51.554;6.736;2023-12-20T03:06:18;17.92;;;6.95;;
37535;SDS011;23379;51.554;6.736;2023-12-20T03:08:43;14.68;;;6.07;;
37535;SDS011;23379;51.554;6.736;2023-12-20T03:11:09;19.58;;;6.03;;
37535;SDS011;23379;51.554;6.736;2023-12-20T03:13:34;14.80;;;5.43;;
37535;SDS011;23379;51.554;6.736;2023-12-20T03:16:00;20.17;;;6.05;;
37535;SDS011;23379;51.554;6.736;2023-12-20T03:18:25;12.93;;;5.32;;
37535;SDS011;23379;51.554;6.736;2023-12-20T03:20:53;13.48;;;4.47;;
37535;SDS011;23379;51.554;6.736;2023-12-20T03:23:18;16.15;;;4.25;;
37535;SDS011;23379;51.554;6.736;2023-12-20T03:25:43;21.65;;;4.97;;
37535;SDS011;23379;51.554;6.736;2023-12-20T03:28:08;18.40;;;4.53;;
37535;SDS011;23379;51.554;6.736;2023-12-20T03:30:34;15.48;;;4.55;;
37535;SDS011;23379;51.554;6.736;2023-12-20T03:32:59;20.80;;;3.92;;
37535;SDS011;23379;51.554;6.736;2023-12-20T03:35:24;13.95;;;4.07;;
37535;SDS011;23379;51.554;6.736;2023-12-20T03:37:50;14.38;;;3.72;;
37535;SDS011;23379;51.554;6.736;2023-12-20T03:40:15;18.33;;;4.05;;
37535;SDS011;23379;51.554;6.736;2023-12-20T03:42:41;12.07;;;4.07;;
37535;SDS011;23379;51.554;6.736;2023-12-20T03:45:06;11.35;;;3.78;;
37535;SDS011;23379;51.554;6.736;2023-12-20T03:47:32;16.35;;;4.13;;
37535;SDS011;23379;51.554;6.736;2023-12-20T03:49:57;7.07;;;3.58;;
37535;SDS011;23379;51.554;6.736;2023-12-20T03:52:22;16.38;;;3.88;;
37535;SDS011;23379;51.554;6.736;2023-12-20T03:54:48;16.73;;;3.80;;
37535;SDS011;23379;51.554;6.736;2023-12-20T03:57:13;18.95;;;3.78;;
37535;SDS011;23379;51.554;6.736;2023-12-20T03:59:38;15.98;;;3.83;;
37535;SDS011;23379;51.554;6.736;2023-12-20T04:02:04;8.98;;;3.80;;
37535;SDS011;23379;51.554;6.736;2023-12-20T04:04:29;17.30;;;3.80;;
37535;SDS011;23379;51.554;6.736;2023-12-20T04:06:55;15.70;;;3.92;;
37535;SDS011;23379;51.554;6.736;2023-12-20T04:09:20;12.90;;;4.22;;
37535;SDS011;23379;51.554;6.736;2023-12-20T04:11:46;16.70;;;4.07;;
37535;SDS011;23379;51.554;6.736;2023-12-20T04:14:11;16.63;;;4.28;;
37535;SDS011;23379;51.554;6.736;2023-12-20T04:16:36;13.50;;;4.50;;
37535;SDS011;23379;51.554;6.736;2023-12-20T04:19:02;19.10;;;4.60;;
37535;SDS011;23379;51.554;6.736;2023-12-20T04:21:27;17.50;;;4.18;;
37535;SDS011;23379;51.554;6.736;2023-12-20T04:23:53;12.40;;;3.75;;
37535;SDS011;23379;51.554;6.736;2023-12-20T04:26:18;20.48;;;4.90;;
37535;SDS011;23379;51.554;6.736;2023-12-20T04:28:43;19.48;;;4.43;;
37535;SDS011;23379;51.554;6.736;2023-12-20T04:31:09;18.73;;;4.45;;
37535;SDS011;23379;51.554;6.736;2023-12-20T04:33:34;12.68;;;4.15;;
37535;SDS011;23379;51.554;6.736;2023-12-20T04:35:59;22.50;;;3.88;;
37535;SDS011;23379;51.554;6.736;2023-12-20T04:38:25;11.98;;;4.25;;
37535;SDS011;23379;51.554;6.736;2023-12-20T04:40:51;13.65;;;4.22;;
37535;SDS011;23379;51.554;6.736;2023-12-20T04:43:17;15.90;;;4.18;;
37535;SDS011;23379;51.554;6.736;2023-12-20T04:45:42;14.98;;;3.53;;
37535;SDS011;23379;51.554;6.736;2023-12-20T04:48:08;21.17;;;4.40;;
37535;SDS011;23379;51.554;6.736;2023-12-20T04:50:33;17.38;;;4.30;;
37535;SDS011;23379;51.554;6.736;2023-12-20T04:52:59;18.50;;;4.88;;
37535;SDS011;23379;51.554;6.736;2023-12-20T04:55:25;22.08;;;5.28;;
37535;SDS011;23379;51.554;6.736;2023-12-20T04:57:50;15.07;;;3.95;;
37535;SDS011;23379;51.554;6.736;2023-12-20T05:00:15;23.65;;;4.45;;
37535;SDS011;23379;51.554;6.736;2023-12-20T05:02:41;19.38;;;4.57;;
37535;SDS011;23379;51.554;6.736;2023-12-20T05:05:06;19.58;;;5.10;;
37535;SDS011;23379;51.554;6.736;2023-12-20T05:07:32;18.17;;;5.18;;
37535;SDS011;23379;51.554;6.736;2023-12-20T05:09:58;18.75;;;4.90;;
37535;SDS011;23379;51.554;6.736;2023-12-20T05:12:23;16.55;;;4.88;;
37535;SDS011;23379;51.554;6.736;2023-12-20T05:14:49;16.13;;;4.70;;
37535;SDS011;23379;51.554;6.736;2023-12-20T05:17:14;20.58;;;4.55;;
37535;SDS011;23379;51.554;6.736;2023-12-20T05:19:39;18.15;;;5.47;;
37535;SDS011;23379;51.554;6.736;2023-12-20T05:22:05;16.42;;;4.78;;
37535;SDS011;23379;51.554;6.736;2023-12-20T05:24:30;16.45;;;5.50;;
37535;SDS011;23379;51.554;6.736;2023-12-20T05:26:55;15.60;;;4.97;;
37535;SDS011;23379;51.554;6.736;2023-12-20T05:29:21;21.70;;;5.13;;
37535;SDS011;23379;51.554;6.736;2023-12-20T05:31:46;15.30;;;5.22;;
37535;SDS011;23379;51.554;6.736;2023-12-20T05:34:12;20.00;;;4.85;;
37535;SDS011;23379;51.554;6.736;2023-12-20T05:36:37;16.42;;;5.35;;
37535;SDS011;23379;51.554;6.736;2023-12-20T05:39:04;31.48;;;6.55;;
37535;SDS011;23379;51.554;6.736;2023-12-20T05:41:30;23.77;;;5.65;;
37535;SDS011;23379;51.554;6.736;2023-12-20T05:43:55;21.60;;;5.72;;
37535;SDS011;23379;51.554;6.736;2023-12-20T05:46:23;16.23;;;5.50;;
37535;SDS011;23379;51.554;6.736;2023-12-20T05:48:48;22.25;;;5.60;;
37535;SDS011;23379;51.554;6.736;2023-12-20T05:51:14;15.52;;;5.20;;
37535;SDS011;23379;51.554;6.736;2023-12-20T05:53:39;27.60;;;6.03;;
37535;SDS011;23379;51.554;6.736;2023-12-20T05:56:05;16.60;;;6.20;;
37535;SDS011;23379;51.554;6.736;2023-12-20T05:58:31;23.52;;;5.00;;
37535;SDS011;23379;51.554;6.736;2023-12-20T06:00:57;23.95;;;5.35;;
37535;SDS011;23379;51.554;6.736;2023-12-20T06:03:22;16.13;;;6.22;;
37535;SDS011;23379;51.554;6.736;2023-12-20T06:05:48;23.17;;;5.10;;
37535;SDS011;23379;51.554;6.736;2023-12-20T06:08:13;24.15;;;5.40;;
37535;SDS011;23379;51.554;6.736;2023-12-20T06:10:39;17.02;;;5.18;;
37535;SDS011;23379;51.554;6.736;2023-12-20T06:13:05;22.15;;;5.53;;
37535;SDS011;23379;51.554;6.736;2023-12-20T06:15:31;17.48;;;5.15;;
37535;SDS011;23379;51.554;6.736;2023-12-20T06:17:57;22.05;;;5.88;;
37535;SDS011;23379;51.554;6.736;2023-12-20T06:20:23;19.65;;;5.72;;
37535;SDS011;23379;51.554;6.736;2023-12-20T06:22:48;17.90;;;5.68;;
37535;SDS011;23379;51.554;6.736;2023-12-20T06:25:13;20.05;;;5.28;;
37535;SDS011;23379;51.554;6.736;2023-12-20T06:27:39;16.13;;;5.93;;
37535;SDS011;23379;51.554;6.736;2023-12-20T06:30:06;24.25;;;6.55;;
37535;SDS011;23379;51.554;6.736;2023-12-20T06:32:34;20.02;;;6.13;;
37535;SDS011;23379;51.554;6.736;2023-12-20T06:35:00;12.70;;;5.63;;
37535;SDS011;23379;51.554;6.736;2023-12-20T06:37:25;22.55;;;6.18;;
37535;SDS011;23379;51.554;6.736;2023-12-20T06:39:50;21.27;;;6.47;;
37535;SDS011;23379;51.554;6.736;2023-12-20T06:42:16;13.65;;;5.40;;
37535;SDS011;23379;51.554;6.736;2023-12-20T06:44:41;18.27;;;5.80;;
37535;SDS011;23379;51.554;6.736;2023-12-20T06:47:06;25.05;;;6.35;;
37535;SDS011;23379;51.554;6.736;2023-12-20T06:49:35;17.42;;;5.25;;
37535;SDS011;23379;51.554;6.736;2023-12-20T06:52:00;28.75;;;6.38;;
37535;SDS011;23379;51.554;6.736;2023-12-20T06:54:25;26.85;;;6.05;;
37535;SDS011;23379;51.554;6.736;2023-12-20T06:56:51;22.20;;;6.03;;
37535;SDS011;23379;51.554;6.736;2023-12-20T06:59:16;15.68;;;6.50;;
37535;SDS011;23379;51.554;6.736;2023-12-20T07:01:42;19.05;;;6.05;;
37535;SDS011;23379;51.554;6.736;2023-12-20T07:04:07;19.75;;;6.47;;
37535;SDS011;23379;51.554;6.736;2023-12-20T07:06:33;18.98;;;5.38;;
37535;SDS011;23379;51.554;6.736;2023-12-20T07:08:59;21.65;;;5.85;;
37535;SDS011;23379;51.554;6.736;2023-12-20T07:11:24;16.98;;;5.40;;
37535;SDS011;23379;51.554;6.736;2023-12-20T07:13:51;19.65;;;6.05;;
37535;SDS011;23379;51.554;6.736;2023-12-20T07:16:16;21.13;;;5.55;;
37535;SDS011;23379;51.554;6.736;2023-12-20T07:18:41;15.68;;;5.38;;
37535;SDS011;23379;51.554;6.736;2023-12-20T07:21:07;22.27;;;5.53;;
37535;SDS011;23379;51.554;6.736;2023-12-20T07:23:33;19.67;;;5.32;;
37535;SDS011;23379;51.554;6.736;2023-12-20T07:25:58;19.35;;;5.45;;
37535;SDS011;23379;51.554;6.736;2023-12-20T07:28:24;19.38;;;5.35;;
37535;SDS011;23379;51.554;6.736;2023-12-20T07:30:50;13.23;;;4.97;;
37535;SDS011;23379;51.554;6.736;2023-12-20T07:33:15;16.50;;;5.03;;
37535;SDS011;23379;51.554;6.736;2023-12-20T07:35:40;11.85;;;4.45;;
37535;SDS011;23379;51.554;6.736;2023-12-20T07:38:06;13.65;;;5.95;;
37535;SDS011;23379;51.554;6.736;2023-12-20T07:40:31;24.42;;;5.72;;
37535;SDS011;23379;51.554;6.736;2023-12-20T07:42:57;26.45;;;5.75;;
37535;SDS011;23379;51.554;6.736;2023-12-20T07:45:23;19.45;;;6.07;;
37535;SDS011;23379;51.554;6.736;2023-12-20T07:47:48;19.20;;;5.15;;
37535;SDS011;23379;51.554;6.736;2023-12-20T07:50:15;18.65;;;5.10;;
37535;SDS011;23379;51.554;6.736;2023-12-20T07:52:40;21.63;;;5.65;;
37535;SDS011;23379;51.554;6.736;2023-12-20T07:55:06;17.52;;;4.90;;
37535;SDS011;23379;51.554;6.736;2023-12-20T07:57:32;22.77;;;6.07;;
37535;SDS011;23379;51.554;6.736;2023-12-20T07:59:57;22.48;;;6.18;;
37535;SDS011;23379;51.554;6.736;2023-12-20T08:02:22;19.48;;;5.50;;
37535;SDS011;23379;51.554;6.736;2023-12-20T08:04:48;16.80;;;5.38;;
37535;SDS011;23379;51.554;6.736;2023-12-20T08:07:13;18.10;;;4.88;;
37535;SDS011;23379;51.554;6.736;2023-12-20T08:09:39;16.55;;;4.60;;
37535;SDS011;23379;51.554;6.736;2023-12-20T08:12:05;23.05;;;4.90;;
37535;SDS011;23379;51.554;6.736;2023-12-20T08:14:30;22.17;;;5.55;;
37535;SDS011;23379;51.554;6.736;2023-12-20T08:16:56;18.55;;;4.97;;
37535;SDS011;23379;51.554;6.736;2023-12-20T08:19:21;14.85;;;5.18;;
37535;SDS011;23379;51.554;6.736;2023-12-20T08:21:47;14.02;;;4.68;;
37535;SDS011;23379;51.554;6.736;2023-12-20T08:24:12;14.35;;;4.50;;
37535;SDS011;23379;51.554;6.736;2023-12-20T08:26:37;20.73;;;5.05;;
37535;SDS011;23379;51.554;6.736;2023-12-20T08:29:03;19.17;;;3.97;;
37535;SDS011;23379;51.554;6.736;2023-12-20T08:31:28;21.30;;;4.63;;
37535;SDS011;23379;51.554;6.736;2023-12-20T08:33:54;26.55;;;5.13;;
37535;SDS011;23379;51.554;6.736;2023-12-20T08:36:19;15.13;;;4.30;;
37535;SDS011;23379;51.554;6.736;2023-12-20T08:38:47;16.90;;;4.70;;
37535;SDS011;23379;51.554;6.736;2023-12-20T08:41:12;13.82;;;4.60;;
37535;SDS011;23379;51.554;6.736;2023-12-20T08:43:38;14.43;;;4.60;;
37535;SDS011;23379;51.554;6.736;2023-12-20T08:46:05;25.80;;;5.43;;
37535;SDS011;23379;51.554;6.736;2023-12-20T08:48:31;18.00;;;4.65;;
37535;SDS011;23379;51.554;6.736;2023-12-20T08:50:56;17.63;;;4.80;;
37535;SDS011;23379;51.554;6.736;2023-12-20T08:53:21;16.50;;;4.80;;
37535;SDS011;23379;51.554;6.736;2023-12-20T08:55:47;17.40;;;4.60;;
37535;SDS011;23379;51.554;6.736;2023-12-20T08:58:13;25.70;;;5.03;;
37535;SDS011;23379;51.554;6.736;2023-12-20T09:00:39;16.77;;;4.68;;
37535;SDS011;23379;51.554;6.736;2023-12-20T09:03:04;19.30;;;4.78;;
37535;SDS011;23379;51.554;6.736;2023-12-20T09:05:30;21.35;;;4.65;;
37535;SDS011;23379;51.554;6.736;2023-12-20T09:07:56;17.33;;;5.40;;
37535;SDS011;23379;51.554;6.736;2023-12-20T09:10:21;16.60;;;4.93;;
37535;SDS011;23379;51.554;6.736;2023-12-20T09:12:50;16.92;;;4.72;;
37535;SDS011;23379;51.554;6.736;2023-12-20T09:15:16;25.58;;;5.47;;
37535;SDS011;23379;51.554;6.736;2023-12-20T09:17:41;21.27;;;5.18;;
37535;SDS011;23379;51.554;6.736;2023-12-20T09:20:07;15.35;;;4.40;;
37535;SDS011;23379;51.554;6.736;2023-12-20T09:22:33;23.75;;;4.90;;
37535;SDS011;23379;51.554;6.736;2023-12-20T09:24:59;13.70;;;4.20;;
37535;SDS011;23379;51.554;6.736;2023-12-20T09:27:26;16.58;;;4.55;;
37535;SDS011;23379;51.554;6.736;2023-12-20T09:29:52;15.55;;;4.55;;
37535;SDS011;23379;51.554;6.736;2023-12-20T09:32:18;14.90;;;4.03;;
37535;SDS011;23379;51.554;6.736;2023-12-20T09:34:45;14.85;;;4.35;;
37535;SDS011;23379;51.554;6.736;2023-12-20T09:37:10;16.10;;;4.40;;
37535;SDS011;23379;51.554;6.736;2023-12-20T09:39:36;24.67;;;5.60;;
37535;SDS011;23379;51.554;6.736;2023-12-20T09:42:02;18.20;;;4.50;;
37535;SDS011;23379;51.554;6.736;2023-12-20T09:44:29;12.07;;;4.57;;
37535;SDS011;23379;51.554;6.736;2023-12-20T09:46:56;15.55;;;4.22;;
37535;SDS011;23379;51.554;6.736;2023-12-20T09:49:22;21.33;;;4.35;;
37535;SDS011;23379;51.554;6.736;2023-12-20T09:51:47;13.18;;;4.43;;
37535;SDS011;23379;51.554;6.736;2023-12-20T09:54:16;11.75;;;4.90;;
37535;SDS011;23379;51.554;6.736;2023-12-20T09:56:43;15.93;;;4.32;;
37535;SDS011;23379;51.554;6.736;2023-12-20T09:59:09;22.08;;;5.18;;
37535;SDS011;23379;51.554;6.736;2023-12-20T10:01:35;20.23;;;4.35;;
37535;SDS011;23379;51.554;6.736;2023-12-20T10:04:01;25.13;;;4.85;;
37535;SDS011;23379;51.554;6.736;2023-12-20T10:06:33;24.15;;;3.78;;
37535;SDS011;23379;51.554;6.736;2023-12-20T10:09:00;14.45;;;4.72;;
37535;SDS011;23379;51.554;6.736;2023-12-20T10:11:26;10.82;;;4.53;;
37535;SDS011;23379;51.554;6.736;2023-12-20T10:13:53;20.50;;;4.45;;
37535;SDS011;23379;51.554;6.736;2023-12-20T10:16:24;15.98;;;4.57;;
37535;SDS011;23379;51.554;6.736;2023-12-20T10:18:50;21.52;;;4.63;;
37535;SDS011;23379;51.554;6.736;2023-12-20T10:21:18;20.58;;;4.82;;
37535;SDS011;23379;51.554;6.736;2023-12-20T10:23:43;19.08;;;5.03;;
37535;SDS011;23379;51.554;6.736;2023-12-20T10:26:09;17.45;;;5.07;;
37535;SDS011;23379;51.554;6.736;2023-12-20T10:28:34;13.88;;;4.65;;
37535;SDS011;23379;51.554;6.736;2023-12-20T10:31:00;15.18;;;4.30;;
37535;SDS011;23379;51.554;6.736;2023-12-20T10:33:26;12.88;;;4.05;;
37535;SDS011;23379;51.554;6.736;2023-12-20T10:35:53;16.58;;;4.13;;
37535;SDS011;23379;51.554;6.736;2023-12-20T10:38:19;17.25;;;4.45;;
37535;SDS011;23379;51.554;6.736;2023-12-20T10:40:45;19.27;;;5.47;;
37535;SDS011;23379;51.554;6.736;2023-12-20T10:43:11;15.98;;;4.38;;
37535;SDS011;23379;51.554;6.736;2023-12-20T10:45:37;15.75;;;4.35;;
37535;SDS011;23379;51.554;6.736;2023-12-20T10:48:02;18.05;;;4.70;;
37535;SDS011;23379;51.554;6.736;2023-12-20T10:50:29;14.02;;;4.40;;
37535;SDS011;23379;51.554;6.736;2023-12-20T10:52:57;13.05;;;5.00;;
37535;SDS011;23379;51.554;6.736;2023-12-20T10:55:23;14.40;;;4.35;;
37535;SDS011;23379;51.554;6.736;2023-12-20T10:58:06;14.02;;;4.25;;
37535;SDS011;23379;51.554;6.736;2023-12-20T11:00:33;25.15;;;5.28;;
37535;SDS011;23379;51.554;6.736;2023-12-20T11:03:04;10.30;;;4.25;;
37535;SDS011;23379;51.554;6.736;2023-12-20T11:05:50;23.77;;;4.30;;
37535;SDS011;23379;51.554;6.736;2023-12-20T11:11:21;18.13;;;4.38;;
37535;SDS011;23379;51.554;6.736;2023-12-20T11:14:01;13.25;;;4.10;;
37535;SDS011;23379;51.554;6.736;2023-12-20T11:16:33;10.45;;;4.00;;
37535;SDS011;23379;51.554;6.736;2023-12-20T11:19:04;22.70;;;4.63;;
37535;SDS011;23379;51.554;6.736;2023-12-20T11:21:30;11.25;;;4.03;;
37535;SDS011;23379;51.554;6.736;2023-12-20T11:23:56;12.20;;;4.30;;
37535;SDS011;23379;51.554;6.736;2023-12-20T11:26:27;19.10;;;4.68;;
37535;SDS011;23379;51.554;6.736;2023-12-20T11:28:54;13.25;;;4.10;;
37535;SDS011;23379;51.554;6.736;2023-12-20T11:31:19;14.13;;;4.28;;
37535;SDS011;23379;51.554;6.736;2023-12-20T11:33:44;19.23;;;5.13;;
37535;SDS011;23379;51.554;6.736;2023-12-20T11:36:19;12.65;;;4.05;;
37535;SDS011;23379;51.554;6.736;2023-12-20T11:39:04;10.18;;;3.80;;
37535;SDS011;23379;51.554;6.736;2023-12-20T11:41:33;16.20;;;4.03;;
37535;SDS011;23379;51.554;6.736;2023-12-20T11:43:59;17.52;;;4.18;;
37535;SDS011;23379;51.554;6.736;2023-12-20T11:46:26;17.13;;;4.82;;
37535;SDS011;23379;51.554;6.736;2023-12-20T11:48:51;21.33;;;4.82;;
37535;SDS011;23379;51.554;6.736;2023-12-20T11:51:17;15.85;;;4.47;;
37535;SDS011;23379;51.554;6.736;2023-12-20T11:53:42;16.50;;;4.82;;
37535;SDS011;23379;51.554;6.736;2023-12-20T11:56:07;16.55;;;4.57;;
37535;SDS011;23379;51.554;6.736;2023-12-20T11:58:33;15.57;;;5.10;;
37535;SDS011;23379;51.554;6.736;2023-12-20T12:00:59;13.38;;;4.70;;
37535;SDS011;23379;51.554;6.736;2023-12-20T12:03:24;15.75;;;4.30;;
37535;SDS011;23379;51.554;6.736;2023-12-20T12:05:50;11.80;;;4.38;;
37535;SDS011;23379;51.554;6.736;2023-12-20T12:08:16;18.92;;;5.22;;
37535;SDS011;23379;51.554;6.736;2023-12-20T12:10:42;16.48;;;5.60;;
37535;SDS011;23379;51.554;6.736;2023-12-20T12:13:11;15.43;;;4.93;;
37535;SDS011;23379;51.554;6.736;2023-12-20T12:15:36;19.08;;;4.30;;
37535;SDS011;23379;51.554;6.736;2023-12-20T12:18:02;12.18;;;3.83;;
37535;SDS011;23379;51.554;6.736;2023-12-20T12:20:28;20.33;;;5.28;;
37535;SDS011;23379;51.554;6.736;2023-12-20T12:23:04;13.73;;;4.78;;
37535;SDS011;23379;51.554;6.736;2023-12-20T12:25:30;13.85;;;4.28;;
37535;SDS011;23379;51.554;6.736;2023-12-20T12:28:00;14.30;;;4.30;;
37535;SDS011;23379;51.554;6.736;2023-12-20T12:30:26;11.32;;;4.40;;
37535;SDS011;23379;51.554;6.736;2023-12-20T12:32:52;20.88;;;4.95;;
37535;SDS011;23379;51.554;6.736;2023-12-20T12:35:18;10.07;;;4.10;;
37535;SDS011;23379;51.554;6.736;2023-12-20T12:37:44;16.08;;;4.00;;
37535;SDS011;23379;51.554;6.736;2023-12-20T12:40:10;12.15;;;4.50;;
37535;SDS011;23379;51.554;6.736;2023-12-20T12:42:37;15.18;;;4.00;;
37535;SDS011;23379;51.554;6.736;2023-12-20T12:45:03;9.18;;;4.15;;
37535;SDS011;23379;51.554;6.736;2023-12-20T12:47:29;12.90;;;4.50;;
37535;SDS011;23379;51.554;6.736;2023-12-20T12:49:55;14.57;;;4.47;;
37535;SDS011;23379;51.554;6.736;2023-12-20T12:52:21;16.23;;;4.47;;
37535;SDS011;23379;51.554;6.736;2023-12-20T12:54:46;15.85;;;4.95;;
37535;SDS011;23379;51.554;6.736;2023-12-20T12:57:13;14.88;;;4.38;;
37535;SDS011;23379;51.554;6.736;2023-12-20T12:59:39;16.13;;;4.07;;
37535;SDS011;23379;51.554;6.736;2023-12-20T13:02:05;13.52;;;4.60;;
37535;SDS011;23379;51.554;6.736;2023-12-20T13:04:30;11.20;;;4.03;;
37535;SDS011;23379;51.554;6.736;2023-12-20T13:06:56;13.25;;;4.05;;
37535;SDS011;23379;51.554;6.736;2023-12-20T13:09:22;16.00;;;4.43;;
37535;SDS011;23379;51.554;6.736;2023-12-20T13:11:48;14.45;;;4.10;;
37535;SDS011;23379;51.554;6.736;2023-12-20T13:14:13;14.77;;;4.28;;
37535;SDS011;23379;51.554;6.736;2023-12-20T13:16:40;18.27;;;4.93;;
37535;SDS011;23379;51.554;6.736;2023-12-20T13:19:06;11.27;;;4.25;;
37535;SDS011;23379;51.554;6.736;2023-12-20T13:21:32;14.68;;;4.25;;
37535;SDS011;23379;51.554;6.736;2023-12-20T13:23:57;12.60;;;4.63;;
37535;SDS011;23379;51.554;6.736;2023-12-20T13:26:23;13.75;;;4.50;;
37535;SDS011;23379;51.554;6.736;2023-12-20T13:28:48;13.73;;;5.07;;
37535;SDS011;23379;51.554;6.736;2023-12-20T13:31:13;11.15;;;4.65;;
37535;SDS011;23379;51.554;6.736;2023-12-20T13:33:39;12.48;;;4.50;;
37535;SDS011;23379;51.554;6.736;2023-12-20T13:36:05;14.52;;;4.90;;
37535;SDS011;23379;51.554;6.736;2023-12-20T13:38:31;14.38;;;5.43;;
37535;SDS011;23379;51.554;6.736;2023-12-20T13:40:56;17.63;;;5.30;;
37535;SDS011;23379;51.554;6.736;2023-12-20T13:43:23;16.40;;;5.50;;
37535;SDS011;23379;51.554;6.736;2023-12-20T13:45:49;14.15;;;5.32;;
37535;SDS011;23379;51.554;6.736;2023-12-20T13:48:15;11.75;;;4.57;;
37535;SDS011;23379;51.554;6.736;2023-12-20T13:50:40;14.13;;;4.72;;
37535;SDS011;23379;51.554;6.736;2023-12-20T13:53:06;14.15;;;5.22;;
37535;SDS011;23379;51.554;6.736;2023-12-20T13:55:32;14.23;;;4.45;;
37535;SDS011;23379;51.554;6.736;2023-12-20T13:57:57;12.73;;;4.00;;
37535;SDS011;23379;51.554;6.736;2023-12-20T14:00:22;20.20;;;5.30;;
37535;SDS011;23379;51.554;6.736;2023-12-20T14:02:48;21.10;;;6.30;;
37535;SDS011;23379;51.554;6.736;2023-12-20T14:05:14;19.17;;;5.65;;
37535;SDS011;23379;51.554;6.736;2023-12-20T14:07:42;12.95;;;5.22;;
37535;SDS011;23379;51.554;6.736;2023-12-20T14:10:11;10.73;;;4.85;;
37535;SDS011;23379;51.554;6.736;2023-12-20T14:12:38;9.57;;;5.45;;
37535;SDS011;23379;51.554;6.736;2023-12-20T14:15:04;11.98;;;5.55;;
37535;SDS011;23379;51.554;6.736;2023-12-20T14:17:34;17.50;;;6.53;;
37535;SDS011;23379;51.554;6.736;2023-12-20T14:19:59;17.17;;;7.05;;
37535;SDS011;23379;51.554;6.736;2023-12-20T14:22:25;16.65;;;5.88;;
37535;SDS011;23379;51.554;6.736;2023-12-20T14:24:50;14.18;;;6.35;;
37535;SDS011;23379;51.554;6.736;2023-12-20T14:27:16;13.88;;;5.55;;
37535;SDS011;23379;51.554;6.736;2023-12-20T14:29:41;10.77;;;5.82;;